sensor_id;sensor_type;location;lat;lon;timestamp;P1;durP1;ratioP1;P2;durP2;ratioP2
8466;SDS011;4270;48.148;11.648;2022-11-04T00:01:04;7.10;;;4.30;;
8466;SDS011;4270;48.148;11.648;2022-11-04T00:03:29;7.20;;;4.63;;
8466;SDS011;4270;48.148;11.648;2022-11-04T00:05:54;5.03;;;4.40;;
8466;SDS011;4270;48.148;11.648;2022-11-04T00:08:19;6.03;;;4.47;;
8466;SDS011;4270;48.148;11.648;2022-11-04T00:10:48;8.10;;;5.03;;
8466;SDS011;4270;48.148;11.648;2022-11-04T00:13:31;6.90;;;4.93;;
8466;SDS011;4270;48.148;11.648;2022-11-04T00:15:59;6.80;;;4.10;;
8466;SDS011;4270;48.148;11.648;2022-11-04T00:18:43;5.33;;;4.40;;
8466;SDS011;4270;48.148;11.648;2022-11-04T00:21:08;12.10;;;4.20;;
8466;SDS011;4270;48.148;11.648;2022-11-04T00:23:52;4.43;;;3.30;;
8466;SDS011;4270;48.148;11.648;2022-11-04T00:26:36;9.03;;;3.47;;
8466;SDS011;4270;48.148;11.648;2022-11-04T00:29:20;5.50;;;2.93;;
8466;SDS011;4270;48.148;11.648;2022-11-04T00:31:45;5.60;;;3.90;;
8466;SDS011;4270;48.148;11.648;2022-11-04T00:34:29;3.80;;;3.33;;
8466;SDS011;4270;48.148;11.648;2022-11-04T00:36:54;4.00;;;2.63;;
8466;SDS011;4270;48.148;11.648;2022-11-04T00:39:19;4.47;;;3.20;;
8466;SDS011;4270;48.148;11.648;2022-11-04T00:41:44;5.47;;;3.33;;
8466;SDS011;4270;48.148;11.648;2022-11-04T00:44:09;4.00;;;3.17;;
8466;SDS011;4270;48.148;11.648;2022-11-04T00:46:35;6.53;;;3.30;;
8466;SDS011;4270;48.148;11.648;2022-11-04T00:49:00;4.40;;;3.10;;
8466;SDS011;4270;48.148;11.648;2022-11-04T00:51:25;4.53;;;3.30;;
8466;SDS011;4270;48.148;11.648;2022-11-04T00:53:51;4.30;;;3.30;;
8466;SDS011;4270;48.148;11.648;2022-11-04T00:56:16;6.17;;;3.63;;
8466;SDS011;4270;48.148;11.648;2022-11-04T00:58:41;3.80;;;2.70;;
8466;SDS011;4270;48.148;11.648;2022-11-04T01:01:10;2.70;;;2.40;;
8466;SDS011;4270;48.148;11.648;2022-11-04T01:03:35;5.57;;;2.60;;
8466;SDS011;4270;48.148;11.648;2022-11-04T01:06:01;3.73;;;2.70;;
8466;SDS011;4270;48.148;11.648;2022-11-04T01:08:26;4.93;;;2.60;;
8466;SDS011;4270;48.148;11.648;2022-11-04T01:10:51;3.30;;;2.40;;
8466;SDS011;4270;48.148;11.648;2022-11-04T01:13:16;5.17;;;2.77;;
8466;SDS011;4270;48.148;11.648;2022-11-04T01:15:41;3.00;;;2.07;;
8466;SDS011;4270;48.148;11.648;2022-11-04T01:18:07;3.90;;;2.50;;
8466;SDS011;4270;48.148;11.648;2022-11-04T01:20:32;3.30;;;2.57;;
8466;SDS011;4270;48.148;11.648;2022-11-04T01:22:57;3.30;;;2.00;;
8466;SDS011;4270;48.148;11.648;2022-11-04T01:25:22;2.87;;;2.53;;
8466;SDS011;4270;48.148;11.648;2022-11-04T01:27:48;3.40;;;2.23;;
8466;SDS011;4270;48.148;11.648;2022-11-04T01:30:13;2.60;;;1.97;;
8466;SDS011;4270;48.148;11.648;2022-11-04T01:32:39;3.30;;;2.20;;
8466;SDS011;4270;48.148;11.648;2022-11-04T01:35:04;1.77;;;1.53;;
8466;SDS011;4270;48.148;11.648;2022-11-04T01:37:29;4.93;;;2.10;;
8466;SDS011;4270;48.148;11.648;2022-11-04T01:39:55;2.67;;;1.87;;
8466;SDS011;4270;48.148;11.648;2022-11-04T01:42:20;3.67;;;2.17;;
8466;SDS011;4270;48.148;11.648;2022-11-04T01:44:56;4.60;;;2.00;;
8466;SDS011;4270;48.148;11.648;2022-11-04T01:49:54;2.50;;;1.47;;
8466;SDS011;4270;48.148;11.648;2022-11-04T01:52:23;2.63;;;1.60;;
8466;SDS011;4270;48.148;11.648;2022-11-04T01:54:50;1.53;;;1.40;;
8466;SDS011;4270;48.148;11.648;2022-11-04T01:57:17;2.80;;;1.43;;
8466;SDS011;4270;48.148;11.648;2022-11-04T01:59:43;1.47;;;1.37;;
8466;SDS011;4270;48.148;11.648;2022-11-04T02:02:09;1.60;;;1.30;;
8466;SDS011;4270;48.148;11.648;2022-11-04T02:04:34;2.30;;;1.77;;
8466;SDS011;4270;48.148;11.648;2022-11-04T02:07:04;2.00;;;1.50;;
8466;SDS011;4270;48.148;11.648;2022-11-04T02:09:30;2.47;;;1.70;;
8466;SDS011;4270;48.148;11.648;2022-11-04T02:11:56;2.67;;;1.10;;
8466;SDS011;4270;48.148;11.648;2022-11-04T02:14:40;2.70;;;1.23;;
8466;SDS011;4270;48.148;11.648;2022-11-04T02:22:10;1.30;;;1.17;;
8466;SDS011;4270;48.148;11.648;2022-11-04T02:24:52;2.13;;;1.00;;
8466;SDS011;4270;48.148;11.648;2022-11-04T02:32:29;5.73;;;1.50;;
8466;SDS011;4270;48.148;11.648;2022-11-04T02:35:07;0.93;;;0.70;;
8466;SDS011;4270;48.148;11.648;2022-11-04T02:40:17;2.00;;;0.90;;
8466;SDS011;4270;48.148;11.648;2022-11-04T02:42:57;1.90;;;1.07;;
8466;SDS011;4270;48.148;11.648;2022-11-04T02:45:24;3.43;;;0.97;;
8466;SDS011;4270;48.148;11.648;2022-11-04T02:47:53;0.70;;;0.70;;
8466;SDS011;4270;48.148;11.648;2022-11-04T02:52:58;1.70;;;0.90;;
8466;SDS011;4270;48.148;11.648;2022-11-04T02:55:26;1.70;;;1.00;;
8466;SDS011;4270;48.148;11.648;2022-11-04T02:57:52;1.00;;;0.70;;
8466;SDS011;4270;48.148;11.648;2022-11-04T03:00:19;1.67;;;1.00;;
8466;SDS011;4270;48.148;11.648;2022-11-04T03:05:12;1.03;;;0.80;;
8466;SDS011;4270;48.148;11.648;2022-11-04T03:07:39;0.83;;;0.70;;
8466;SDS011;4270;48.148;11.648;2022-11-04T03:10:05;1.43;;;0.90;;
8466;SDS011;4270;48.148;11.648;2022-11-04T03:12:34;1.00;;;0.90;;
8466;SDS011;4270;48.148;11.648;2022-11-04T03:15:02;0.80;;;0.70;;
8466;SDS011;4270;48.148;11.648;2022-11-04T03:17:40;1.03;;;0.60;;
8466;SDS011;4270;48.148;11.648;2022-11-04T03:20:08;1.30;;;1.00;;
8466;SDS011;4270;48.148;11.648;2022-11-04T03:22:35;0.77;;;0.77;;
8466;SDS011;4270;48.148;11.648;2022-11-04T03:25:04;2.27;;;0.80;;
8466;SDS011;4270;48.148;11.648;2022-11-04T03:30:14;1.60;;;0.60;;
8466;SDS011;4270;48.148;11.648;2022-11-04T03:35:05;1.00;;;0.77;;
8466;SDS011;4270;48.148;11.648;2022-11-04T03:37:31;0.70;;;0.60;;
8466;SDS011;4270;48.148;11.648;2022-11-04T03:39:56;0.80;;;0.53;;
8466;SDS011;4270;48.148;11.648;2022-11-04T03:42:21;1.17;;;0.80;;
8466;SDS011;4270;48.148;11.648;2022-11-04T03:44:51;0.90;;;0.60;;
8466;SDS011;4270;48.148;11.648;2022-11-04T03:47:18;1.20;;;0.70;;
8466;SDS011;4270;48.148;11.648;2022-11-04T03:49:44;1.77;;;1.40;;
8466;SDS011;4270;48.148;11.648;2022-11-04T03:52:10;1.53;;;1.00;;
8466;SDS011;4270;48.148;11.648;2022-11-04T03:54:35;0.90;;;0.80;;
8466;SDS011;4270;48.148;11.648;2022-11-04T04:00:01;0.80;;;0.70;;
8466;SDS011;4270;48.148;11.648;2022-11-04T04:04:59;0.90;;;0.60;;
8466;SDS011;4270;48.148;11.648;2022-11-04T04:07:30;1.00;;;0.60;;
8466;SDS011;4270;48.148;11.648;2022-11-04T04:10:00;1.20;;;0.87;;
8466;SDS011;4270;48.148;11.648;2022-11-04T04:14:53;1.13;;;0.90;;
8466;SDS011;4270;48.148;11.648;2022-11-04T04:19:51;0.83;;;0.80;;
8466;SDS011;4270;48.148;11.648;2022-11-04T04:22:19;0.93;;;0.60;;
8466;SDS011;4270;48.148;11.648;2022-11-04T04:24:47;1.17;;;0.70;;
8466;SDS011;4270;48.148;11.648;2022-11-04T04:27:32;1.03;;;0.80;;
8466;SDS011;4270;48.148;11.648;2022-11-04T04:29:59;2.30;;;0.70;;
8466;SDS011;4270;48.148;11.648;2022-11-04T04:32:25;1.07;;;0.73;;
8466;SDS011;4270;48.148;11.648;2022-11-04T04:34:52;1.07;;;0.57;;
8466;SDS011;4270;48.148;11.648;2022-11-04T04:37:37;1.00;;;0.80;;
8466;SDS011;4270;48.148;11.648;2022-11-04T04:40:04;1.50;;;0.73;;
8466;SDS011;4270;48.148;11.648;2022-11-04T04:42:50;0.80;;;0.53;;
8466;SDS011;4270;48.148;11.648;2022-11-04T04:45:35;0.53;;;0.53;;
8466;SDS011;4270;48.148;11.648;2022-11-04T04:48:01;1.00;;;0.67;;
8466;SDS011;4270;48.148;11.648;2022-11-04T04:50:36;0.87;;;0.60;;
8466;SDS011;4270;48.148;11.648;2022-11-04T04:53:03;0.90;;;0.60;;
8466;SDS011;4270;48.148;11.648;2022-11-04T04:55:29;0.80;;;0.60;;
8466;SDS011;4270;48.148;11.648;2022-11-04T04:57:55;0.70;;;0.60;;
8466;SDS011;4270;48.148;11.648;2022-11-04T05:00:21;1.10;;;0.80;;
8466;SDS011;4270;48.148;11.648;2022-11-04T05:02:47;1.47;;;1.03;;
8466;SDS011;4270;48.148;11.648;2022-11-04T05:05:12;2.10;;;0.70;;
8466;SDS011;4270;48.148;11.648;2022-11-04T05:07:38;1.27;;;1.03;;
8466;SDS011;4270;48.148;11.648;2022-11-04T05:10:03;0.90;;;0.57;;
8466;SDS011;4270;48.148;11.648;2022-11-04T05:12:29;0.60;;;0.50;;
8466;SDS011;4270;48.148;11.648;2022-11-04T05:15:14;0.80;;;0.70;;
8466;SDS011;4270;48.148;11.648;2022-11-04T05:17:39;1.23;;;0.70;;
8466;SDS011;4270;48.148;11.648;2022-11-04T05:20:05;0.93;;;0.60;;
8466;SDS011;4270;48.148;11.648;2022-11-04T05:22:30;1.10;;;0.60;;
8466;SDS011;4270;48.148;11.648;2022-11-04T05:24:55;0.80;;;0.77;;
8466;SDS011;4270;48.148;11.648;2022-11-04T05:27:20;1.30;;;0.60;;
8466;SDS011;4270;48.148;11.648;2022-11-04T05:29:46;1.33;;;0.93;;
8466;SDS011;4270;48.148;11.648;2022-11-04T05:32:11;1.07;;;0.67;;
8466;SDS011;4270;48.148;11.648;2022-11-04T05:34:36;0.90;;;0.50;;
8466;SDS011;4270;48.148;11.648;2022-11-04T05:37:01;0.93;;;0.63;;
8466;SDS011;4270;48.148;11.648;2022-11-04T05:39:27;1.13;;;0.80;;
8466;SDS011;4270;48.148;11.648;2022-11-04T05:41:52;1.00;;;0.80;;
8466;SDS011;4270;48.148;11.648;2022-11-04T05:44:17;1.13;;;0.80;;
8466;SDS011;4270;48.148;11.648;2022-11-04T05:46:42;0.70;;;0.60;;
8466;SDS011;4270;48.148;11.648;2022-11-04T05:49:08;1.60;;;0.90;;
8466;SDS011;4270;48.148;11.648;2022-11-04T05:51:33;0.90;;;0.77;;
8466;SDS011;4270;48.148;11.648;2022-11-04T05:53:58;0.97;;;0.70;;
8466;SDS011;4270;48.148;11.648;2022-11-04T05:56:24;0.90;;;0.70;;
8466;SDS011;4270;48.148;11.648;2022-11-04T05:58:49;0.73;;;0.70;;
8466;SDS011;4270;48.148;11.648;2022-11-04T06:03:55;1.10;;;0.60;;
8466;SDS011;4270;48.148;11.648;2022-11-04T06:06:21;1.67;;;0.80;;
8466;SDS011;4270;48.148;11.648;2022-11-04T06:08:48;0.90;;;0.60;;
8466;SDS011;4270;48.148;11.648;2022-11-04T06:11:13;2.37;;;0.77;;
8466;SDS011;4270;48.148;11.648;2022-11-04T06:13:38;2.60;;;0.80;;
8466;SDS011;4270;48.148;11.648;2022-11-04T06:16:04;0.90;;;0.57;;
8466;SDS011;4270;48.148;11.648;2022-11-04T06:18:29;1.47;;;0.80;;
8466;SDS011;4270;48.148;11.648;2022-11-04T06:23:38;1.40;;;1.00;;
8466;SDS011;4270;48.148;11.648;2022-11-04T06:26:03;0.73;;;0.73;;
8466;SDS011;4270;48.148;11.648;2022-11-04T06:28:29;1.60;;;0.67;;
8466;SDS011;4270;48.148;11.648;2022-11-04T06:30:56;2.70;;;1.20;;
8466;SDS011;4270;48.148;11.648;2022-11-04T06:33:21;1.97;;;1.13;;
8466;SDS011;4270;48.148;11.648;2022-11-04T06:35:46;1.83;;;1.00;;
8466;SDS011;4270;48.148;11.648;2022-11-04T06:38:12;1.43;;;1.00;;
8466;SDS011;4270;48.148;11.648;2022-11-04T06:40:37;8.00;;;2.27;;
8466;SDS011;4270;48.148;11.648;2022-11-04T06:43:02;1.70;;;1.37;;
8466;SDS011;4270;48.148;11.648;2022-11-04T06:45:27;3.23;;;1.80;;
8466;SDS011;4270;48.148;11.648;2022-11-04T06:47:52;1.80;;;1.20;;
8466;SDS011;4270;48.148;11.648;2022-11-04T06:50:18;1.53;;;0.80;;
8466;SDS011;4270;48.148;11.648;2022-11-04T06:52:43;0.87;;;0.70;;
8466;SDS011;4270;48.148;11.648;2022-11-04T06:55:08;1.10;;;0.93;;
8466;SDS011;4270;48.148;11.648;2022-11-04T06:57:34;0.83;;;0.63;;
8466;SDS011;4270;48.148;11.648;2022-11-04T06:59:59;1.47;;;0.80;;
8466;SDS011;4270;48.148;11.648;2022-11-04T07:02:24;1.30;;;0.90;;
8466;SDS011;4270;48.148;11.648;2022-11-04T07:04:49;3.57;;;0.77;;
8466;SDS011;4270;48.148;11.648;2022-11-04T07:07:15;1.10;;;0.83;;
8466;SDS011;4270;48.148;11.648;2022-11-04T07:09:40;2.17;;;1.00;;
8466;SDS011;4270;48.148;11.648;2022-11-04T07:12:06;1.00;;;0.87;;
8466;SDS011;4270;48.148;11.648;2022-11-04T07:14:31;1.07;;;0.90;;
8466;SDS011;4270;48.148;11.648;2022-11-04T07:16:56;1.23;;;1.00;;
8466;SDS011;4270;48.148;11.648;2022-11-04T07:19:21;2.80;;;1.20;;
8466;SDS011;4270;48.148;11.648;2022-11-04T07:21:47;1.90;;;1.27;;
8466;SDS011;4270;48.148;11.648;2022-11-04T07:24:12;2.90;;;1.20;;
8466;SDS011;4270;48.148;11.648;2022-11-04T07:26:37;2.87;;;1.50;;
8466;SDS011;4270;48.148;11.648;2022-11-04T07:29:03;1.10;;;0.80;;
8466;SDS011;4270;48.148;11.648;2022-11-04T07:31:30;1.10;;;0.70;;
8466;SDS011;4270;48.148;11.648;2022-11-04T07:33:55;3.30;;;0.87;;
8466;SDS011;4270;48.148;11.648;2022-11-04T07:36:21;1.40;;;0.67;;
8466;SDS011;4270;48.148;11.648;2022-11-04T07:38:46;1.50;;;0.67;;
8466;SDS011;4270;48.148;11.648;2022-11-04T07:41:12;0.93;;;0.83;;
8466;SDS011;4270;48.148;11.648;2022-11-04T07:43:37;2.40;;;0.97;;
8466;SDS011;4270;48.148;11.648;2022-11-04T07:46:07;1.70;;;1.07;;
8466;SDS011;4270;48.148;11.648;2022-11-04T07:48:32;1.67;;;1.17;;
8466;SDS011;4270;48.148;11.648;2022-11-04T07:50:58;1.77;;;0.80;;
8466;SDS011;4270;48.148;11.648;2022-11-04T07:53:24;1.00;;;0.80;;
8466;SDS011;4270;48.148;11.648;2022-11-04T07:55:49;0.80;;;0.70;;
8466;SDS011;4270;48.148;11.648;2022-11-04T07:58:16;1.00;;;0.87;;
8466;SDS011;4270;48.148;11.648;2022-11-04T08:00:41;1.30;;;1.00;;
8466;SDS011;4270;48.148;11.648;2022-11-04T08:03:07;1.73;;;1.20;;
8466;SDS011;4270;48.148;11.648;2022-11-04T08:05:32;2.13;;;0.70;;
8466;SDS011;4270;48.148;11.648;2022-11-04T08:07:57;2.80;;;1.07;;
8466;SDS011;4270;48.148;11.648;2022-11-04T08:10:23;0.90;;;0.80;;
8466;SDS011;4270;48.148;11.648;2022-11-04T08:12:49;1.77;;;1.13;;
8466;SDS011;4270;48.148;11.648;2022-11-04T08:15:15;1.80;;;0.97;;
8466;SDS011;4270;48.148;11.648;2022-11-04T08:17:40;3.47;;;1.10;;
8466;SDS011;4270;48.148;11.648;2022-11-04T08:20:05;1.87;;;1.10;;
8466;SDS011;4270;48.148;11.648;2022-11-04T08:22:31;2.70;;;1.13;;
8466;SDS011;4270;48.148;11.648;2022-11-04T08:24:58;2.00;;;0.90;;
8466;SDS011;4270;48.148;11.648;2022-11-04T08:27:23;3.67;;;1.20;;
8466;SDS011;4270;48.148;11.648;2022-11-04T08:29:48;1.93;;;1.00;;
8466;SDS011;4270;48.148;11.648;2022-11-04T08:32:13;2.80;;;1.10;;
8466;SDS011;4270;48.148;11.648;2022-11-04T08:34:39;5.50;;;1.30;;
8466;SDS011;4270;48.148;11.648;2022-11-04T08:37:04;2.87;;;1.37;;
8466;SDS011;4270;48.148;11.648;2022-11-04T08:39:29;1.70;;;1.23;;
8466;SDS011;4270;48.148;11.648;2022-11-04T08:41:55;5.03;;;1.30;;
8466;SDS011;4270;48.148;11.648;2022-11-04T08:44:20;3.67;;;1.30;;
8466;SDS011;4270;48.148;11.648;2022-11-04T08:46:46;2.63;;;1.30;;
8466;SDS011;4270;48.148;11.648;2022-11-04T08:49:12;2.50;;;1.50;;
8466;SDS011;4270;48.148;11.648;2022-11-04T08:51:39;2.70;;;1.10;;
8466;SDS011;4270;48.148;11.648;2022-11-04T08:54:05;1.93;;;1.17;;
8466;SDS011;4270;48.148;11.648;2022-11-04T08:56:32;3.40;;;2.57;;
8466;SDS011;4270;48.148;11.648;2022-11-04T08:58:59;4.80;;;2.00;;
8466;SDS011;4270;48.148;11.648;2022-11-04T09:01:26;6.40;;;1.70;;
8466;SDS011;4270;48.148;11.648;2022-11-04T09:03:52;2.40;;;1.30;;
8466;SDS011;4270;48.148;11.648;2022-11-04T09:06:19;1.93;;;1.37;;
8466;SDS011;4270;48.148;11.648;2022-11-04T09:08:45;5.60;;;1.57;;
8466;SDS011;4270;48.148;11.648;2022-11-04T09:11:11;2.53;;;1.20;;
8466;SDS011;4270;48.148;11.648;2022-11-04T09:13:37;2.27;;;1.40;;
8466;SDS011;4270;48.148;11.648;2022-11-04T09:16:03;3.73;;;1.40;;
8466;SDS011;4270;48.148;11.648;2022-11-04T09:18:28;1.70;;;1.60;;
8466;SDS011;4270;48.148;11.648;2022-11-04T09:20:54;1.77;;;1.30;;
8466;SDS011;4270;48.148;11.648;2022-11-04T09:23:19;1.70;;;1.30;;
8466;SDS011;4270;48.148;11.648;2022-11-04T09:25:44;1.80;;;1.23;;
8466;SDS011;4270;48.148;11.648;2022-11-04T09:28:10;2.50;;;1.50;;
8466;SDS011;4270;48.148;11.648;2022-11-04T09:30:35;2.07;;;1.23;;
8466;SDS011;4270;48.148;11.648;2022-11-04T09:33:01;2.40;;;1.20;;
8466;SDS011;4270;48.148;11.648;2022-11-04T09:35:26;1.20;;;0.90;;
8466;SDS011;4270;48.148;11.648;2022-11-04T09:37:52;2.03;;;1.20;;
8466;SDS011;4270;48.148;11.648;2022-11-04T09:40:18;4.50;;;1.80;;
8466;SDS011;4270;48.148;11.648;2022-11-04T09:45:20;1.77;;;1.20;;
8466;SDS011;4270;48.148;11.648;2022-11-04T09:47:48;6.73;;;1.43;;
8466;SDS011;4270;48.148;11.648;2022-11-04T09:50:16;5.03;;;1.50;;
8466;SDS011;4270;48.148;11.648;2022-11-04T09:52:43;1.63;;;1.13;;
8466;SDS011;4270;48.148;11.648;2022-11-04T09:55:16;1.90;;;1.57;;
8466;SDS011;4270;48.148;11.648;2022-11-04T09:57:42;2.07;;;1.63;;
8466;SDS011;4270;48.148;11.648;2022-11-04T10:00:14;1.67;;;1.30;;
8466;SDS011;4270;48.148;11.648;2022-11-04T10:02:58;1.80;;;1.70;;
8466;SDS011;4270;48.148;11.648;2022-11-04T10:05:37;1.43;;;1.33;;
8466;SDS011;4270;48.148;11.648;2022-11-04T10:08:17;4.20;;;1.50;;
8466;SDS011;4270;48.148;11.648;2022-11-04T10:11:06;5.03;;;1.70;;
8466;SDS011;4270;48.148;11.648;2022-11-04T10:13:44;1.27;;;1.10;;
8466;SDS011;4270;48.148;11.648;2022-11-04T10:16:17;2.10;;;1.70;;
8466;SDS011;4270;48.148;11.648;2022-11-04T10:18:53;2.50;;;1.50;;
8466;SDS011;4270;48.148;11.648;2022-11-04T10:26:30;4.17;;;1.70;;
8466;SDS011;4270;48.148;11.648;2022-11-04T10:29:00;3.63;;;2.00;;
8466;SDS011;4270;48.148;11.648;2022-11-04T10:31:26;4.80;;;2.57;;
8466;SDS011;4270;48.148;11.648;2022-11-04T10:33:57;5.40;;;3.10;;
8466;SDS011;4270;48.148;11.648;2022-11-04T10:36:23;2.33;;;1.77;;
8466;SDS011;4270;48.148;11.648;2022-11-04T10:38:49;2.07;;;1.50;;
8466;SDS011;4270;48.148;11.648;2022-11-04T10:41:24;3.43;;;1.20;;
8466;SDS011;4270;48.148;11.648;2022-11-04T10:43:51;1.57;;;1.40;;
8466;SDS011;4270;48.148;11.648;2022-11-04T10:48:50;2.43;;;1.30;;
8466;SDS011;4270;48.148;11.648;2022-11-04T10:51:18;1.87;;;1.40;;
8466;SDS011;4270;48.148;11.648;2022-11-04T10:53:46;2.00;;;1.43;;
8466;SDS011;4270;48.148;11.648;2022-11-04T10:56:27;2.67;;;1.50;;
8466;SDS011;4270;48.148;11.648;2022-11-04T10:58:53;1.60;;;1.47;;
8466;SDS011;4270;48.148;11.648;2022-11-04T11:01:23;2.30;;;1.73;;
8466;SDS011;4270;48.148;11.648;2022-11-04T11:03:49;1.90;;;1.33;;
8466;SDS011;4270;48.148;11.648;2022-11-04T11:08:49;1.50;;;1.20;;
8466;SDS011;4270;48.148;11.648;2022-11-04T11:11:15;1.67;;;1.37;;
8466;SDS011;4270;48.148;11.648;2022-11-04T11:13:44;2.80;;;1.87;;
8466;SDS011;4270;48.148;11.648;2022-11-04T11:16:17;3.00;;;1.83;;
8466;SDS011;4270;48.148;11.648;2022-11-04T11:18:42;2.67;;;1.63;;
8466;SDS011;4270;48.148;11.648;2022-11-04T11:21:09;2.47;;;1.60;;
8466;SDS011;4270;48.148;11.648;2022-11-04T11:23:44;1.77;;;1.50;;
8466;SDS011;4270;48.148;11.648;2022-11-04T11:28:40;3.00;;;2.17;;
8466;SDS011;4270;48.148;11.648;2022-11-04T11:31:07;2.17;;;1.30;;
8466;SDS011;4270;48.148;11.648;2022-11-04T11:33:58;3.23;;;1.27;;
8466;SDS011;4270;48.148;11.648;2022-11-04T11:36:24;7.90;;;1.90;;
8466;SDS011;4270;48.148;11.648;2022-11-04T11:38:52;2.13;;;1.20;;
8466;SDS011;4270;48.148;11.648;2022-11-04T11:41:17;4.80;;;1.57;;
8466;SDS011;4270;48.148;11.648;2022-11-04T11:43:51;5.33;;;1.20;;
8466;SDS011;4270;48.148;11.648;2022-11-04T11:46:20;3.00;;;2.00;;
8466;SDS011;4270;48.148;11.648;2022-11-04T11:48:50;4.20;;;1.97;;
8466;SDS011;4270;48.148;11.648;2022-11-04T11:51:26;2.93;;;2.00;;
8466;SDS011;4270;48.148;11.648;2022-11-04T11:56:31;3.20;;;1.80;;
8466;SDS011;4270;48.148;11.648;2022-11-04T11:59:01;2.00;;;1.57;;
8466;SDS011;4270;48.148;11.648;2022-11-04T12:01:38;2.23;;;1.47;;
8466;SDS011;4270;48.148;11.648;2022-11-04T12:04:06;1.77;;;1.53;;
8466;SDS011;4270;48.148;11.648;2022-11-04T12:19:49;2.03;;;1.30;;
8466;SDS011;4270;48.148;11.648;2022-11-04T12:25:50;1.70;;;1.23;;
8466;SDS011;4270;48.148;11.648;2022-11-04T12:30:17;2.33;;;1.17;;
8466;SDS011;4270;48.148;11.648;2022-11-04T12:40:28;0.87;;;0.80;;
8466;SDS011;4270;48.148;11.648;2022-11-04T12:47:52;1.17;;;1.07;;
8466;SDS011;4270;48.148;11.648;2022-11-04T12:50:25;3.17;;;1.30;;
8466;SDS011;4270;48.148;11.648;2022-11-04T13:00:47;0.90;;;0.87;;
8466;SDS011;4270;48.148;11.648;2022-11-04T13:03:17;1.30;;;1.20;;
8466;SDS011;4270;48.148;11.648;2022-11-04T13:08:42;1.93;;;0.90;;
8466;SDS011;4270;48.148;11.648;2022-11-04T13:11:11;2.00;;;1.23;;
8466;SDS011;4270;48.148;11.648;2022-11-04T13:16:16;1.70;;;0.80;;
8466;SDS011;4270;48.148;11.648;2022-11-04T13:18:41;6.63;;;0.90;;
8466;SDS011;4270;48.148;11.648;2022-11-04T13:21:08;4.37;;;0.80;;
8466;SDS011;4270;48.148;11.648;2022-11-04T13:23:40;2.10;;;0.97;;
8466;SDS011;4270;48.148;11.648;2022-11-04T13:26:10;2.37;;;1.50;;
8466;SDS011;4270;48.148;11.648;2022-11-04T13:28:36;1.50;;;1.23;;
8466;SDS011;4270;48.148;11.648;2022-11-04T13:33:39;4.77;;;1.00;;
8466;SDS011;4270;48.148;11.648;2022-11-04T13:44:24;4.57;;;1.90;;
8466;SDS011;4270;48.148;11.648;2022-11-04T13:46:52;1.43;;;1.30;;
8466;SDS011;4270;48.148;11.648;2022-11-04T13:49:19;2.43;;;1.10;;
8466;SDS011;4270;48.148;11.648;2022-11-04T13:54:31;1.23;;;0.70;;
8466;SDS011;4270;48.148;11.648;2022-11-04T13:57:11;1.83;;;0.70;;
8466;SDS011;4270;48.148;11.648;2022-11-04T13:59:36;1.37;;;0.80;;
8466;SDS011;4270;48.148;11.648;2022-11-04T14:04:37;1.93;;;1.03;;
8466;SDS011;4270;48.148;11.648;2022-11-04T14:07:04;1.10;;;0.90;;
8466;SDS011;4270;48.148;11.648;2022-11-04T14:14:51;1.83;;;0.90;;
8466;SDS011;4270;48.148;11.648;2022-11-04T14:25:18;2.33;;;1.53;;
8466;SDS011;4270;48.148;11.648;2022-11-04T14:27:44;1.60;;;1.40;;
8466;SDS011;4270;48.148;11.648;2022-11-04T14:32:55;1.97;;;1.40;;
8466;SDS011;4270;48.148;11.648;2022-11-04T14:35:22;3.43;;;1.30;;
8466;SDS011;4270;48.148;11.648;2022-11-04T14:37:50;4.30;;;1.60;;
8466;SDS011;4270;48.148;11.648;2022-11-04T14:43:41;1.03;;;0.93;;
8466;SDS011;4270;48.148;11.648;2022-11-04T14:46:07;2.70;;;1.80;;
8466;SDS011;4270;48.148;11.648;2022-11-04T14:48:32;3.10;;;1.73;;
8466;SDS011;4270;48.148;11.648;2022-11-04T14:50:58;1.50;;;1.40;;
8466;SDS011;4270;48.148;11.648;2022-11-04T14:53:31;2.17;;;1.30;;
8466;SDS011;4270;48.148;11.648;2022-11-04T14:56:04;3.17;;;1.60;;
8466;SDS011;4270;48.148;11.648;2022-11-04T14:58:29;4.03;;;1.70;;
8466;SDS011;4270;48.148;11.648;2022-11-04T15:00:57;2.87;;;1.87;;
8466;SDS011;4270;48.148;11.648;2022-11-04T15:03:24;3.30;;;2.63;;
8466;SDS011;4270;48.148;11.648;2022-11-04T15:05:51;2.67;;;1.80;;
8466;SDS011;4270;48.148;11.648;2022-11-04T15:08:28;3.70;;;1.43;;
8466;SDS011;4270;48.148;11.648;2022-11-04T15:13:31;2.30;;;1.80;;
8466;SDS011;4270;48.148;11.648;2022-11-04T15:15:56;3.40;;;1.77;;
8466;SDS011;4270;48.148;11.648;2022-11-04T15:18:24;2.40;;;1.30;;
8466;SDS011;4270;48.148;11.648;2022-11-04T15:20:55;1.57;;;1.47;;
8466;SDS011;4270;48.148;11.648;2022-11-04T15:23:32;3.37;;;1.70;;
8466;SDS011;4270;48.148;11.648;2022-11-04T15:25:58;2.83;;;1.40;;
8466;SDS011;4270;48.148;11.648;2022-11-04T15:28:28;3.97;;;1.47;;
8466;SDS011;4270;48.148;11.648;2022-11-04T15:33:22;1.40;;;1.27;;
8466;SDS011;4270;48.148;11.648;2022-11-04T15:35:48;1.90;;;1.70;;
8466;SDS011;4270;48.148;11.648;2022-11-04T15:38:14;2.27;;;1.73;;
8466;SDS011;4270;48.148;11.648;2022-11-04T15:40:39;2.00;;;1.50;;
8466;SDS011;4270;48.148;11.648;2022-11-04T15:43:06;1.60;;;1.50;;
8466;SDS011;4270;48.148;11.648;2022-11-04T15:45:38;3.17;;;1.70;;
8466;SDS011;4270;48.148;11.648;2022-11-04T15:51:48;3.70;;;1.67;;
8466;SDS011;4270;48.148;11.648;2022-11-04T15:53:46;1.57;;;1.47;;
8466;SDS011;4270;48.148;11.648;2022-11-04T15:56:13;1.70;;;1.30;;
8466;SDS011;4270;48.148;11.648;2022-11-04T15:58:39;1.40;;;1.03;;
8466;SDS011;4270;48.148;11.648;2022-11-04T16:01:05;2.43;;;1.70;;
8466;SDS011;4270;48.148;11.648;2022-11-04T16:03:30;1.33;;;1.20;;
8466;SDS011;4270;48.148;11.648;2022-11-04T16:06:02;1.20;;;1.10;;
8466;SDS011;4270;48.148;11.648;2022-11-04T16:08:29;1.40;;;0.97;;
8466;SDS011;4270;48.148;11.648;2022-11-04T16:13:38;1.73;;;1.07;;
8466;SDS011;4270;48.148;11.648;2022-11-04T16:16:06;1.67;;;1.33;;
8466;SDS011;4270;48.148;11.648;2022-11-04T16:20:58;1.73;;;1.50;;
8466;SDS011;4270;48.148;11.648;2022-11-04T16:23:26;2.23;;;1.37;;
8466;SDS011;4270;48.148;11.648;2022-11-04T16:28:24;3.33;;;1.60;;
8466;SDS011;4270;48.148;11.648;2022-11-04T16:30:59;1.97;;;1.77;;
8466;SDS011;4270;48.148;11.648;2022-11-04T16:33:24;1.57;;;1.37;;
8466;SDS011;4270;48.148;11.648;2022-11-04T16:35:49;1.90;;;1.70;;
8466;SDS011;4270;48.148;11.648;2022-11-04T16:38:15;2.10;;;1.73;;
8466;SDS011;4270;48.148;11.648;2022-11-04T16:40:41;2.00;;;1.43;;
8466;SDS011;4270;48.148;11.648;2022-11-04T16:43:08;1.90;;;1.40;;
8466;SDS011;4270;48.148;11.648;2022-11-04T16:45:34;1.87;;;1.50;;
8466;SDS011;4270;48.148;11.648;2022-11-04T16:48:00;1.43;;;1.17;;
8466;SDS011;4270;48.148;11.648;2022-11-04T16:50:25;2.23;;;1.30;;
8466;SDS011;4270;48.148;11.648;2022-11-04T16:52:51;4.23;;;1.90;;
8466;SDS011;4270;48.148;11.648;2022-11-04T16:55:17;3.17;;;2.33;;
8466;SDS011;4270;48.148;11.648;2022-11-04T16:57:45;2.20;;;1.70;;
8466;SDS011;4270;48.148;11.648;2022-11-04T17:00:18;3.67;;;2.00;;
8466;SDS011;4270;48.148;11.648;2022-11-04T17:02:44;3.70;;;2.63;;
8466;SDS011;4270;48.148;11.648;2022-11-04T17:05:10;5.47;;;4.23;;
8466;SDS011;4270;48.148;11.648;2022-11-04T17:07:36;6.53;;;4.60;;
8466;SDS011;4270;48.148;11.648;2022-11-04T17:10:11;6.40;;;3.70;;
8466;SDS011;4270;48.148;11.648;2022-11-04T17:12:37;3.80;;;3.40;;
8466;SDS011;4270;48.148;11.648;2022-11-04T17:15:03;5.57;;;4.90;;
8466;SDS011;4270;48.148;11.648;2022-11-04T17:17:28;8.83;;;5.73;;
8466;SDS011;4270;48.148;11.648;2022-11-04T17:19:53;5.47;;;4.07;;
8466;SDS011;4270;48.148;11.648;2022-11-04T17:22:19;5.40;;;3.30;;
8466;SDS011;4270;48.148;11.648;2022-11-04T17:24:44;3.23;;;2.17;;
8466;SDS011;4270;48.148;11.648;2022-11-04T17:27:09;2.97;;;1.90;;
8466;SDS011;4270;48.148;11.648;2022-11-04T17:29:34;3.37;;;2.40;;
8466;SDS011;4270;48.148;11.648;2022-11-04T17:32:01;3.83;;;2.70;;
8466;SDS011;4270;48.148;11.648;2022-11-04T17:34:26;4.37;;;2.37;;
8466;SDS011;4270;48.148;11.648;2022-11-04T17:36:52;3.33;;;2.00;;
8466;SDS011;4270;48.148;11.648;2022-11-04T17:39:17;5.57;;;2.20;;